Time;durP1;ratioP1;P1;durP2;ratioP2;P2;SDS_P1;SDS_P2;PMS_P1;PMS_P2;Temp;Humidity;BMP_temperature;BMP_pressure;BME280_temperature;BME280_humidity;BME280_pressure;Samples;Min_cycle;Max_cycle;Signal;HPM_P1;HPM_P2
2023/08/18 00:01:19;;;;;;;5.00;4.60;;;25.20;70.50;25.90;100843.00;;;;5008642;28;20205;-57
2023/08/18 00:03:45;;;;;;;5.03;4.60;;;25.20;70.50;25.90;100801.00;;;;5009943;28;20190;-55
2023/08/18 00:06:11;;;;;;;5.20;4.70;;;25.20;70.60;25.80;100843.00;;;;5009869;28;20231;-57
2023/08/18 00:08:37;;;;;;;5.43;4.70;;;25.20;70.50;25.80;100844.00;;;;5009913;28;20179;-56
2023/08/18 00:11:03;;;;;;;5.40;5.00;;;25.20;70.50;25.80;100832.00;;;;5009719;28;20558;-56
2023/08/18 00:13:29;;;;;;;5.05;4.65;;;25.20;70.50;25.80;100845.00;;;;5009792;28;20207;-57
2023/08/18 00:15:54;;;;;;;5.60;4.63;;;25.20;70.50;25.80;100836.00;;;;5009782;28;20262;-56
2023/08/18 00:18:20;;;;;;;4.93;4.53;;;25.10;70.40;25.80;100834.00;;;;5009658;28;20187;-58
2023/08/18 00:20:47;;;;;;;4.78;4.38;;;25.10;70.40;25.80;100847.00;;;;5011577;28;20199;-56
2023/08/18 00:23:13;;;;;;;5.07;4.63;;;25.10;70.40;25.80;100835.00;;;;5010456;28;20540;-57
2023/08/18 00:25:38;;;;;;;4.75;4.35;;;25.10;70.40;25.80;100839.00;;;;5009489;28;20203;-57
2023/08/18 00:28:05;;;;;;;5.10;4.60;;;25.10;70.50;25.80;100832.00;;;;5009280;28;20188;-56
2023/08/18 00:30:31;;;;;;;5.10;4.47;;;25.10;70.50;25.80;100828.00;;;;5009251;28;20210;-55
2023/08/18 00:32:56;;;;;;;4.97;4.18;;;25.10;70.50;25.70;100831.00;;;;5009125;28;20783;-54
2023/08/18 00:35:22;;;;;;;5.25;4.80;;;25.10;70.50;25.70;100830.00;;;;5009508;28;20658;-55
2023/08/18 00:37:50;;;;;;;5.18;4.78;;;25.10;70.60;25.70;100825.00;;;;5010501;28;20184;-55
2023/08/18 00:40:16;;;;;;;5.18;4.68;;;25.00;70.60;25.70;100786.00;;;;5010650;28;20204;-54
2023/08/18 00:42:42;;;;;;;5.85;5.00;;;25.00;70.60;25.70;100837.00;;;;5009309;28;20322;-54
2023/08/18 00:45:09;;;;;;;5.15;4.75;;;25.00;70.70;25.70;100831.00;;;;5008955;28;20230;-54
2023/08/18 00:47:34;;;;;;;4.95;4.50;;;25.00;70.60;25.70;100836.00;;;;5009362;28;20199;-54
2023/08/18 00:50:00;;;;;;;5.30;4.80;;;25.00;70.60;25.70;100837.00;;;;4991635;28;20269;-54
2023/08/18 00:52:26;;;;;;;4.82;4.50;;;25.00;70.60;25.70;100835.00;;;;5009640;28;20205;-55
2023/08/18 00:54:52;;;;;;;4.90;4.50;;;25.00;70.70;25.60;100831.00;;;;5011577;28;20650;-55
2023/08/18 00:57:19;;;;;;;4.78;4.40;;;25.00;70.60;25.60;100837.00;;;;5008192;28;20203;-54
2023/08/18 00:59:44;;;;;;;5.30;4.60;;;25.00;70.60;25.60;100828.00;;;;5009167;28;20187;-54
2023/08/18 01:02:10;;;;;;;5.38;4.70;;;25.00;70.50;25.60;100770.00;;;;5007617;28;20195;-54
2023/08/18 01:04:36;;;;;;;5.40;4.60;;;25.00;70.50;25.60;100813.00;;;;4991426;28;20186;-55
2023/08/18 01:07:02;;;;;;;5.10;4.70;;;25.00;70.60;25.60;100816.00;;;;5008741;28;20202;-54
2023/08/18 01:09:28;;;;;;;4.80;4.40;;;25.00;70.70;25.60;100825.00;;;;5008884;28;20176;-54
2023/08/18 01:12:24;;;;;;;5.18;4.30;;;24.90;70.60;25.60;100814.00;;;;5007147;28;20214;-54
2023/08/18 01:15:18;;;;;;;4.63;4.30;;;24.90;70.60;25.50;100804.00;;;;5008867;28;20266;-54
2023/08/18 01:17:53;;;;;;;5.10;4.55;;;24.90;70.70;25.50;100808.00;;;;5007472;28;20218;-53
2023/08/18 01:20:19;;;;;;;5.07;4.68;;;24.90;70.60;25.50;100798.00;;;;5006904;28;20704;-53
2023/08/18 01:22:50;;;;;;;5.40;4.90;;;24.90;70.70;25.50;100800.00;;;;5012849;28;20215;-55
2023/08/18 01:25:16;;;;;;;4.95;4.55;;;24.90;70.70;25.50;100795.00;;;;4991730;28;20634;-53
2023/08/18 01:27:42;;;;;;;5.35;4.88;;;24.90;70.70;25.50;100796.00;;;;5008648;28;20230;-53
2023/08/18 01:30:08;;;;;;;5.10;4.70;;;24.90;70.70;25.50;100803.00;;;;4990533;28;20188;-54
2023/08/18 01:32:47;;;;;;;4.70;4.30;;;24.90;70.80;25.50;100797.00;;;;5007076;28;20232;-54
2023/08/18 01:35:13;;;;;;;5.00;4.60;;;24.90;70.70;25.40;100795.00;;;;4992767;28;20187;-54
2023/08/18 01:37:39;;;;;;;6.30;5.68;;;24.90;70.70;25.40;100778.00;;;;5008499;28;20532;-56
2023/08/18 01:40:07;;;;;;;5.18;4.75;;;24.80;71.00;25.40;100807.00;;;;4990834;28;20270;-56
2023/08/18 01:42:32;;;;;;;5.10;4.60;;;24.90;71.20;25.40;100796.00;;;;5007209;28;20200;-55
2023/08/18 01:45:02;;;;;;;5.18;4.70;;;24.80;71.00;25.40;100811.00;;;;5006998;28;20190;-56
2023/08/18 01:47:28;;;;;;;5.05;4.60;;;24.80;70.90;25.40;100797.00;;;;5008535;28;20214;-55
2023/08/18 01:49:55;;;;;;;5.13;4.72;;;24.80;70.90;25.40;100795.00;;;;5006720;28;20176;-54
2023/08/18 01:52:20;;;;;;;5.47;4.93;;;24.80;70.90;25.40;100794.00;;;;5008149;28;20203;-56
2023/08/18 01:54:46;;;;;;;5.93;4.70;;;24.80;70.90;25.40;100793.00;;;;5008348;28;20176;-57
2023/08/18 01:57:12;;;;;;;4.97;4.47;;;24.80;70.90;25.40;100799.00;;;;5008197;28;20190;-56
2023/08/18 01:59:38;;;;;;;4.85;4.45;;;24.80;70.90;25.30;100793.00;;;;5008317;28;20278;-56
2023/08/18 02:02:03;;;;;;;4.65;4.25;;;24.80;70.80;25.30;100793.00;;;;5008279;28;20211;-57
2023/08/18 02:04:29;;;;;;;5.18;4.70;;;24.70;70.60;25.30;100791.00;;;;5008362;28;20179;-56
2023/08/18 02:06:55;;;;;;;5.28;4.70;;;24.70;70.60;25.30;100794.00;;;;5008174;28;20258;-55
2023/08/18 02:09:21;;;;;;;5.28;4.78;;;24.70;70.70;25.20;100790.00;;;;5008374;28;20171;-59
2023/08/18 02:11:46;;;;;;;5.05;4.63;;;24.70;70.70;25.20;100789.00;;;;5007363;28;20579;-55
2023/08/18 02:14:12;;;;;;;5.45;4.65;;;24.70;71.50;25.20;100788.00;;;;5007782;28;20179;-56
2023/08/18 02:16:38;;;;;;;5.00;4.60;;;24.70;70.70;25.20;100781.00;;;;5007798;28;20191;-56
2023/08/18 02:19:04;;;;;;;6.68;5.80;;;24.70;70.70;25.20;100778.00;;;;5007653;28;20566;-55
2023/08/18 02:21:31;;;;;;;5.60;5.10;;;24.70;70.90;25.20;100779.00;;;;5007582;28;20286;-55
2023/08/18 02:23:56;;;;;;;4.97;4.53;;;24.70;71.00;25.20;100777.00;;;;5008412;28;20706;-55
2023/08/18 02:26:22;;;;;;;5.00;4.57;;;24.70;70.90;25.20;100785.00;;;;5011502;28;20200;-57
2023/08/18 02:28:48;;;;;;;5.40;4.90;;;24.60;70.70;25.10;100776.00;;;;5011606;28;20184;-56
2023/08/18 02:31:14;;;;;;;6.05;5.45;;;24.60;70.70;25.10;100772.00;;;;5011316;28;20191;-56
2023/08/18 02:33:39;;;;;;;5.32;4.57;;;24.60;70.80;25.10;100776.00;;;;5011833;28;20210;-56
2023/08/18 02:36:05;;;;;;;5.20;4.80;;;24.60;70.80;25.10;100772.00;;;;5011769;28;20254;-55
2023/08/18 02:38:34;;;;;;;5.38;4.75;;;24.60;70.80;25.10;100776.00;;;;5011702;28;20246;-56
2023/08/18 02:40:59;;;;;;;5.05;4.63;;;24.60;70.70;25.10;100779.00;;;;5011208;28;20183;-56
2023/08/18 02:43:25;;;;;;;5.18;4.75;;;24.50;70.70;25.10;100772.00;;;;5016457;28;20195;-56
2023/08/18 02:45:56;;;;;;;6.20;4.70;;;24.50;70.50;25.10;100771.00;;;;5013814;28;20290;-56
2023/08/18 02:48:25;;;;;;;5.13;4.65;;;24.60;70.70;25.10;100708.00;;;;5010032;28;20290;-55
2023/08/18 02:51:00;;;;;;;4.78;4.40;;;24.60;70.70;25.10;100772.00;;;;5011170;28;20603;-56
2023/08/18 02:53:26;;;;;;;5.13;4.65;;;24.50;70.60;25.00;100770.00;;;;5011384;28;20658;-55
2023/08/18 02:55:54;;;;;;;5.20;4.63;;;24.50;70.50;25.00;100784.00;;;;5011492;28;20183;-56
2023/08/18 02:58:20;;;;;;;5.93;4.85;;;24.50;70.60;25.00;100779.00;;;;5015526;28;20179;-56
2023/08/18 03:00:46;;;;;;;5.35;4.82;;;24.50;70.60;25.00;100776.00;;;;5014155;28;20176;-56
2023/08/18 03:03:11;;;;;;;5.38;4.85;;;24.50;70.60;25.00;100781.00;;;;5007177;28;20222;-56
2023/08/18 03:05:37;;;;;;;4.80;4.47;;;24.50;70.70;25.00;100781.00;;;;5012032;28;20281;-57
2023/08/18 03:08:03;;;;;;;5.88;4.43;;;24.50;70.80;25.00;100775.00;;;;5011901;28;20199;-55
2023/08/18 03:10:29;;;;;;;4.78;4.38;;;24.40;70.70;24.90;100778.00;;;;5011839;28;20673;-56
2023/08/18 03:12:55;;;;;;;5.15;4.65;;;24.40;70.50;24.90;100774.00;;;;5011824;28;20322;-56
2023/08/18 03:15:21;;;;;;;5.43;4.38;;;24.40;70.80;24.90;100777.00;;;;5011955;28;20230;-56
2023/08/18 03:17:46;;;;;;;5.18;4.78;;;24.40;70.80;24.90;100768.00;;;;5011556;28;20841;-57
2023/08/18 03:20:12;;;;;;;5.40;5.00;;;24.40;70.80;24.90;100774.00;;;;5010918;28;20555;-56
2023/08/18 03:22:38;;;;;;;5.40;4.90;;;24.40;70.80;24.80;100757.00;;;;5015612;28;20666;-55
2023/08/18 03:25:04;;;;;;;5.45;4.95;;;24.40;70.90;24.80;100769.00;;;;5011316;28;20736;-56
2023/08/18 03:27:30;;;;;;;5.50;5.10;;;24.40;70.80;24.80;100769.00;;;;5010197;28;20192;-56
2023/08/18 03:29:56;;;;;;;5.95;5.38;;;24.40;70.90;24.80;100778.00;;;;5011065;28;20226;-55
2023/08/18 03:32:24;;;;;;;5.70;5.30;;;24.30;70.80;24.80;100778.00;;;;5004294;28;20203;-56
2023/08/18 03:34:53;;;;;;;5.88;5.40;;;24.30;70.80;24.80;100781.00;;;;5005766;28;20180;-54
2023/08/18 03:37:19;;;;;;;6.35;5.85;;;24.40;70.90;24.80;100783.00;;;;5010298;28;20178;-58
2023/08/18 03:39:45;;;;;;;6.57;6.00;;;24.40;70.90;24.80;100778.00;;;;5010935;28;20184;-55
2023/08/18 03:42:11;;;;;;;6.50;5.90;;;24.30;70.90;24.80;100776.00;;;;5011063;28;20199;-55
2023/08/18 03:44:37;;;;;;;6.45;5.95;;;24.30;70.80;24.80;100779.00;;;;5011419;28;20179;-55
2023/08/18 03:47:03;;;;;;;6.05;5.45;;;24.30;70.80;24.80;100778.00;;;;5010790;28;20207;-55
2023/08/18 03:49:29;;;;;;;6.05;5.45;;;24.30;70.80;24.80;100788.00;;;;5010739;28;20639;-55
2023/08/18 03:51:55;;;;;;;6.25;5.75;;;24.30;70.80;24.70;100781.00;;;;5010228;28;20207;-55
2023/08/18 03:54:20;;;;;;;8.85;8.15;;;24.20;70.70;24.70;100782.00;;;;5011048;28;20182;-55
2023/08/18 03:56:46;;;;;;;10.70;9.70;;;24.30;70.70;24.70;100776.00;;;;5009765;28;20233;-55
2023/08/18 03:59:12;;;;;;;8.43;7.72;;;24.30;70.70;24.70;100771.00;;;;5009765;28;20175;-55
2023/08/18 04:01:38;;;;;;;6.40;5.88;;;24.20;70.60;24.70;100772.00;;;;5009074;28;20689;-55
2023/08/18 04:04:04;;;;;;;6.65;6.07;;;24.20;70.60;24.70;100780.00;;;;5010030;28;20187;-55
2023/08/18 04:06:30;;;;;;;6.70;6.20;;;24.20;70.70;24.60;100784.00;;;;5010089;28;20239;-53
2023/08/18 04:09:06;;;;;;;6.70;6.10;;;24.20;70.70;24.60;100783.00;;;;5010772;28;20190;-55
2023/08/18 04:11:35;;;;;;;6.80;6.13;;;24.20;70.70;24.60;100783.00;;;;5009527;28;20821;-54
2023/08/18 04:14:02;;;;;;;6.53;5.68;;;24.20;70.70;24.60;100787.00;;;;5011030;28;20222;-55
2023/08/18 04:16:31;;;;;;;6.40;5.80;;;24.10;70.60;24.60;100780.00;;;;5011111;28;20266;-55
2023/08/18 04:18:57;;;;;;;7.18;5.95;;;24.20;70.80;24.60;100790.00;;;;5010426;28;20188;-56
2023/08/18 04:21:23;;;;;;;7.00;6.38;;;24.10;70.70;24.60;100795.00;;;;5014545;28;20540;-56
2023/08/18 04:23:48;;;;;;;6.40;5.90;;;24.10;70.70;24.60;100796.00;;;;5010557;28;20186;-55
2023/08/18 04:26:14;;;;;;;6.72;6.20;;;24.10;70.70;24.50;100801.00;;;;5010298;28;20291;-55
2023/08/18 04:28:40;;;;;;;6.50;5.90;;;24.10;70.90;24.50;100785.00;;;;5010710;28;20182;-55
2023/08/18 04:31:06;;;;;;;6.15;5.65;;;24.10;70.70;24.50;100788.00;;;;5009111;28;20582;-54
2023/08/18 04:33:31;;;;;;;5.95;5.45;;;24.10;70.70;24.50;100780.00;;;;5009330;28;20554;-55
2023/08/18 04:35:58;;;;;;;6.43;5.82;;;24.10;70.90;24.50;100782.00;;;;5010343;28;20259;-54
2023/08/18 04:38:24;;;;;;;6.03;5.43;;;24.10;71.00;24.50;100783.00;;;;5010200;28;20262;-56
2023/08/18 04:41:16;;;;;;;6.45;5.68;;;24.10;70.90;24.50;100782.00;;;;5010163;28;20325;-54
2023/08/18 04:43:42;;;;;;;6.90;6.30;;;24.10;70.90;24.40;100799.00;;;;5008517;28;20230;-55
2023/08/18 04:46:08;;;;;;;6.10;5.60;;;24.10;71.00;24.40;100782.00;;;;5012171;28;20697;-55
2023/08/18 04:48:34;;;;;;;5.80;5.20;;;24.00;70.80;24.40;100784.00;;;;5017972;28;20237;-54
2023/08/18 04:51:00;;;;;;;6.05;5.47;;;24.00;70.90;24.40;100782.00;;;;5004553;28;20679;-55
2023/08/18 04:53:25;;;;;;;6.10;5.40;;;24.00;70.80;24.40;100792.00;;;;5009993;28;20674;-55
2023/08/18 04:55:52;;;;;;;5.68;5.18;;;24.00;70.90;24.40;100786.00;;;;5009505;28;20179;-54
2023/08/18 04:58:17;;;;;;;6.20;5.70;;;24.00;70.90;24.40;100786.00;;;;5010087;28;20335;-55
2023/08/18 05:00:44;;;;;;;6.13;5.15;;;24.00;70.90;24.40;100777.00;;;;5011065;28;20266;-55
2023/08/18 05:03:11;;;;;;;5.80;5.20;;;24.00;71.00;24.40;100779.00;;;;5013106;28;20195;-55
2023/08/18 05:06:08;;;;;;;5.05;4.63;;;23.90;70.90;24.40;100775.00;;;;5009380;28;20214;-55
2023/08/18 05:08:40;;;;;;;5.88;5.32;;;23.90;70.80;24.30;100779.00;;;;5008809;28;20236;-55
2023/08/18 05:11:08;;;;;;;6.55;5.88;;;23.90;70.90;24.30;100775.00;;;;5008964;28;20232;-55
2023/08/18 05:13:34;;;;;;;5.95;5.50;;;23.90;71.10;24.30;100775.00;;;;5008407;28;20200;-54
2023/08/18 05:16:00;;;;;;;6.03;5.43;;;23.90;71.00;24.30;100774.00;;;;5006175;28;20627;-55
2023/08/18 05:18:28;;;;;;;5.47;4.97;;;23.90;70.90;24.30;100769.00;;;;5007907;28;20638;-56
2023/08/18 05:20:58;;;;;;;6.70;6.10;;;23.90;70.80;24.30;100772.00;;;;5011966;28;20549;-56
2023/08/18 05:23:24;;;;;;;12.03;10.97;;;23.90;70.80;24.30;100774.00;;;;5009421;28;20282;-55
2023/08/18 05:25:54;;;;;;;7.38;6.72;;;23.80;70.80;24.30;100781.00;;;;5007746;28;20199;-56
2023/08/18 05:28:20;;;;;;;6.22;5.63;;;23.80;70.80;24.20;100781.00;;;;5008024;28;20228;-56
2023/08/18 05:30:47;;;;;;;7.78;5.75;;;23.80;70.80;24.20;100770.00;;;;5007444;28;20175;-56
2023/08/18 05:33:13;;;;;;;7.90;5.72;;;23.80;70.80;24.20;100778.00;;;;5008952;28;20187;-55
2023/08/18 05:35:38;;;;;;;5.95;5.45;;;23.80;70.80;24.20;100771.00;;;;5008808;28;20187;-56
2023/08/18 05:38:10;;;;;;;5.77;5.10;;;23.80;70.80;24.20;100786.00;;;;5006566;28;20237;-55
2023/08/18 05:40:44;;;;;;;5.07;4.68;;;23.80;71.00;24.20;100778.00;;;;5008319;28;20226;-55
2023/08/18 05:43:10;;;;;;;5.32;4.93;;;23.80;70.90;24.20;100778.00;;;;5007909;28;20257;-56
2023/08/18 05:45:36;;;;;;;6.20;5.60;;;23.80;71.20;24.20;100779.00;;;;5007805;28;20290;-56
2023/08/18 05:48:04;;;;;;;5.65;5.10;;;23.80;71.10;24.10;100790.00;;;;5008991;28;20893;-54
2023/08/18 05:50:30;;;;;;;5.23;4.83;;;23.70;71.00;24.10;100786.00;;;;5009147;28;20188;-55
2023/08/18 05:52:56;;;;;;;6.03;5.47;;;23.70;71.10;24.10;100785.00;;;;5008994;28;20187;-55
2023/08/18 05:55:25;;;;;;;6.13;5.63;;;23.70;71.20;24.10;100782.00;;;;5009238;28;20176;-56
2023/08/18 05:57:52;;;;;;;5.72;5.22;;;23.70;71.30;24.10;100783.00;;;;5008934;28;20199;-56
2023/08/18 06:00:18;;;;;;;5.97;5.18;;;23.70;71.20;24.10;100800.00;;;;5011650;28;20680;-56
2023/08/18 06:02:44;;;;;;;6.65;6.15;;;23.70;71.40;24.10;100792.00;;;;5012991;28;20729;-55
2023/08/18 06:05:12;;;;;;;6.47;5.50;;;23.70;71.60;24.10;100797.00;;;;5012659;28;20318;-54
2023/08/18 06:07:41;;;;;;;5.10;4.70;;;23.70;71.60;24.10;100789.00;;;;5012718;28;20179;-56
2023/08/18 06:10:11;;;;;;;5.17;4.77;;;23.70;71.70;24.10;100794.00;;;;5012425;28;20565;-55
2023/08/18 06:12:37;;;;;;;5.83;5.33;;;23.60;71.60;24.10;100794.00;;;;5012152;28;20286;-55
2023/08/18 06:15:05;;;;;;;6.30;5.80;;;23.70;71.80;24.10;100791.00;;;;5012491;28;20221;-55
2023/08/18 06:17:31;;;;;;;5.75;5.30;;;23.60;71.90;24.10;100804.00;;;;5009848;28;20253;-55
2023/08/18 06:19:57;;;;;;;6.18;5.68;;;23.70;72.10;24.10;100800.00;;;;5012129;28;20650;-54
2023/08/18 06:22:23;;;;;;;5.93;5.17;;;23.60;72.10;24.10;100801.00;;;;5016708;28;20215;-55
2023/08/18 06:24:49;;;;;;;5.80;5.30;;;23.70;72.30;24.10;100816.00;;;;5012354;28;20179;-56
2023/08/18 06:27:18;;;;;;;5.65;5.25;;;23.60;72.20;24.10;100815.00;;;;5012017;28;20212;-55
2023/08/18 06:29:43;;;;;;;6.57;5.75;;;23.70;73.10;24.10;100821.00;;;;5012488;28;20180;-55
2023/08/18 06:32:09;;;;;;;5.63;5.20;;;23.70;73.30;24.00;100814.00;;;;5012107;28;20199;-54
2023/08/18 06:34:35;;;;;;;6.17;5.67;;;23.70;73.30;24.00;100816.00;;;;5012308;28;20646;-55
2023/08/18 06:37:01;;;;;;;5.53;5.03;;;23.60;73.20;24.00;100804.00;;;;5012253;28;20190;-54
2023/08/18 06:39:27;;;;;;;4.30;4.00;;;23.60;73.20;24.00;100809.00;;;;5012022;28;20182;-55
2023/08/18 06:41:52;;;;;;;5.13;4.03;;;23.60;73.20;24.00;100803.00;;;;5012247;28;20207;-55
2023/08/18 06:44:19;;;;;;;4.03;3.73;;;23.50;73.10;24.00;100796.00;;;;5012435;28;20267;-55
2023/08/18 06:46:45;;;;;;;4.40;4.00;;;23.60;73.20;24.00;100798.00;;;;5010859;28;20233;-55
2023/08/18 06:49:11;;;;;;;4.53;4.00;;;23.60;73.20;23.90;100805.00;;;;5013567;28;20250;-55
2023/08/18 06:51:37;;;;;;;4.60;4.30;;;23.60;73.20;23.90;100793.00;;;;5016993;28;20207;-54
2023/08/18 06:54:03;;;;;;;4.80;4.20;;;23.60;73.20;23.90;100797.00;;;;5011718;28;20605;-56
2023/08/18 06:56:28;;;;;;;4.27;3.97;;;23.50;73.30;23.90;100789.00;;;;5011877;28;20199;-56
2023/08/18 06:58:54;;;;;;;5.10;4.70;;;23.50;73.50;23.90;100779.00;;;;5012006;28;20222;-56
2023/08/18 07:01:20;;;;;;;4.77;4.33;;;23.60;74.20;23.90;100779.00;;;;5011542;28;20184;-56
2023/08/18 07:03:47;;;;;;;3.87;3.57;;;23.50;74.00;23.90;100775.00;;;;5012988;28;20191;-56
2023/08/18 07:06:13;;;;;;;3.85;3.55;;;23.50;74.00;23.90;100781.00;;;;5021706;28;20204;-55
2023/08/18 07:08:39;;;;;;;3.57;3.27;;;23.50;74.00;23.90;100785.00;;;;4994368;28;20191;-56
2023/08/18 07:11:05;;;;;;;4.03;3.73;;;23.50;74.20;23.90;100785.00;;;;5010727;28;20184;-56
2023/08/18 07:13:31;;;;;;;3.37;3.17;;;23.40;74.10;23.90;100794.00;;;;5011613;28;20200;-56
2023/08/18 07:15:56;;;;;;;3.50;3.30;;;23.40;74.20;23.90;100780.00;;;;5011447;28;20186;-56
2023/08/18 07:18:23;;;;;;;4.00;3.43;;;23.40;75.40;23.90;100800.00;;;;5011632;28;20196;-56
2023/08/18 07:20:48;;;;;;;3.73;3.43;;;23.40;74.90;23.90;100796.00;;;;5014863;28;20316;-55
2023/08/18 07:23:14;;;;;;;4.00;3.70;;;23.40;74.90;23.90;100791.00;;;;5011714;28;20215;-55
2023/08/18 07:25:40;;;;;;;3.85;3.55;;;23.40;75.10;23.90;100794.00;;;;5010944;28;20208;-55
2023/08/18 07:28:07;;;;;;;3.80;3.50;;;23.40;75.10;23.90;100801.00;;;;5009030;28;20635;-56
2023/08/18 07:30:32;;;;;;;4.03;3.67;;;23.40;75.20;23.90;100791.00;;;;5009922;28;20179;-55
2023/08/18 07:32:58;;;;;;;3.78;3.35;;;23.40;75.60;24.00;100800.00;;;;5009875;28;20249;-56
2023/08/18 07:35:24;;;;;;;6.10;5.60;;;23.40;75.60;24.00;100797.00;;;;5010926;28;20788;-55
2023/08/18 07:37:53;;;;;;;4.97;4.50;;;23.40;75.60;23.90;100788.00;;;;5011790;28;20183;-56
2023/08/18 07:40:19;;;;;;;4.33;4.03;;;23.40;76.00;24.00;100787.00;;;;5011874;28;20171;-56
2023/08/18 07:42:45;;;;;;;5.53;4.10;;;23.40;76.30;24.00;100784.00;;;;5011333;28;20291;-55
2023/08/18 07:45:11;;;;;;;4.20;3.80;;;23.40;77.40;24.00;100791.00;;;;5010165;28;20549;-56
2023/08/18 07:47:42;;;;;;;4.60;3.53;;;23.50;77.00;24.10;100791.00;;;;5007978;28;20184;-55
2023/08/18 07:50:11;;;;;;;3.70;3.50;;;23.60;77.00;24.10;100780.00;;;;5010190;28;20258;-56
2023/08/18 07:52:37;;;;;;;3.50;3.30;;;23.60;77.20;24.10;100774.00;;;;5010420;28;20674;-54
2023/08/18 07:55:04;;;;;;;3.77;3.37;;;23.60;77.20;24.20;100782.00;;;;5010612;28;20175;-55
2023/08/18 07:57:30;;;;;;;3.67;3.47;;;23.60;77.00;24.20;100781.00;;;;5008243;28;20787;-56
2023/08/18 07:59:56;;;;;;;3.83;3.50;;;23.60;77.30;24.20;100778.00;;;;5009593;28;20175;-56
2023/08/18 08:02:21;;;;;;;3.80;3.50;;;23.60;78.30;24.20;100773.00;;;;5009744;28;20207;-55
2023/08/18 08:04:47;;;;;;;3.80;3.60;;;23.60;78.20;24.10;100780.00;;;;5010045;28;20203;-55
2023/08/18 08:07:13;;;;;;;3.90;3.60;;;23.50;78.40;24.10;100779.00;;;;5010083;28;20208;-57
2023/08/18 08:09:39;;;;;;;3.83;3.53;;;23.50;79.70;24.10;100788.00;;;;5009775;28;20208;-56
2023/08/18 08:12:06;;;;;;;4.00;3.70;;;23.60;79.70;24.10;100783.00;;;;5010751;28;20712;-56
2023/08/18 08:14:31;;;;;;;3.75;3.55;;;23.60;80.20;24.10;100785.00;;;;5007438;28;20194;-56
2023/08/18 08:16:58;;;;;;;3.80;3.60;;;23.60;80.00;24.10;100795.00;;;;5009785;28;20180;-55
2023/08/18 08:19:24;;;;;;;4.43;4.03;;;23.60;79.30;24.20;100789.00;;;;5007258;28;20234;-54
2023/08/18 08:21:50;;;;;;;4.60;3.80;;;23.60;79.40;24.20;100794.00;;;;5014129;28;20195;-57
2023/08/18 08:24:16;;;;;;;4.00;3.70;;;23.60;79.60;24.20;100792.00;;;;5006348;28;20583;-56
2023/08/18 08:26:43;;;;;;;4.60;4.20;;;23.60;80.20;24.20;100789.00;;;;5008231;28;20212;-55
2023/08/18 08:29:09;;;;;;;4.47;3.90;;;23.60;80.90;24.10;100789.00;;;;5009362;28;20806;-55
2023/08/18 08:31:36;;;;;;;4.43;4.13;;;23.60;81.10;24.10;100782.00;;;;5008922;28;20262;-55
2023/08/18 08:34:02;;;;;;;4.30;4.00;;;23.60;81.20;24.10;100797.00;;;;5007884;28;20180;-55
2023/08/18 08:36:32;;;;;;;4.37;4.07;;;23.60;80.70;24.20;100785.00;;;;5009294;28;20786;-55
2023/08/18 08:39:00;;;;;;;4.32;4.03;;;23.70;81.80;24.20;100791.00;;;;5009051;28;20662;-54
2023/08/18 08:41:26;;;;;;;4.20;3.90;;;23.70;81.40;24.20;100787.00;;;;5008797;28;20184;-54
2023/08/18 08:43:52;;;;;;;4.23;3.93;;;23.70;81.30;24.30;100784.00;;;;5009398;28;20184;-56
2023/08/18 08:46:18;;;;;;;4.13;3.83;;;23.70;81.40;24.30;100783.00;;;;5010355;28;20217;-56
2023/08/18 08:48:46;;;;;;;4.35;3.95;;;23.70;81.60;24.30;100789.00;;;;5009438;28;20866;-56
2023/08/18 08:51:12;;;;;;;4.40;4.00;;;23.70;81.90;24.40;100793.00;;;;5009101;28;20642;-56
2023/08/18 08:53:40;;;;;;;4.17;3.87;;;23.70;82.50;24.30;100789.00;;;;5011459;28;20254;-55
2023/08/18 08:56:07;;;;;;;4.10;3.80;;;23.70;82.00;24.30;100779.00;;;;5012355;28;20183;-56
2023/08/18 08:58:34;;;;;;;4.32;4.00;;;23.70;82.30;24.40;100787.00;;;;5012918;28;20430;-56
2023/08/18 09:01:00;;;;;;;4.40;4.10;;;23.80;82.40;24.40;100779.00;;;;5026013;28;20194;-55
2023/08/18 09:03:27;;;;;;;4.50;3.97;;;23.80;82.40;24.40;100786.00;;;;5026280;28;20203;-58
2023/08/18 09:05:54;;;;;;;4.30;4.00;;;23.80;83.10;24.50;100790.00;;;;5017363;28;20211;-55
2023/08/18 09:08:20;;;;;;;4.85;4.45;;;23.80;83.00;24.50;100791.00;;;;5012630;28;20187;-55
2023/08/18 09:10:46;;;;;;;4.70;4.35;;;23.80;83.70;24.50;100794.00;;;;5011824;28;20221;-55
2023/08/18 09:13:12;;;;;;;4.80;4.40;;;23.90;84.10;24.50;100779.00;;;;5008602;28;20195;-56
2023/08/18 09:15:41;;;;;;;4.53;4.18;;;23.80;83.30;24.50;100781.00;;;;5005999;28;20258;-55
2023/08/18 09:18:07;;;;;;;6.20;4.30;;;23.90;83.90;24.60;100783.00;;;;5009327;28;20299;-56
2023/08/18 09:20:34;;;;;;;6.90;4.10;;;23.90;83.50;24.60;100780.00;;;;5010447;28;20191;-57
2023/08/18 09:23:00;;;;;;;5.20;4.80;;;23.90;84.20;24.60;100787.00;;;;5011974;28;20235;-56
2023/08/18 09:25:26;;;;;;;5.20;4.40;;;24.00;85.70;24.60;100775.00;;;;5009310;28;20194;-56
2023/08/18 09:27:52;;;;;;;4.97;4.60;;;23.90;84.20;24.60;100778.00;;;;5009327;28;20183;-56
2023/08/18 09:30:17;;;;;;;5.97;4.80;;;23.90;85.50;24.60;100769.00;;;;5010266;28;20191;-56
2023/08/18 09:32:43;;;;;;;5.00;4.60;;;23.90;85.50;24.60;100772.00;;;;5008930;28;20203;-58
2023/08/18 09:35:12;;;;;;;5.35;4.95;;;24.00;84.80;24.60;100769.00;;;;4989956;28;20194;-58
2023/08/18 09:37:38;;;;;;;5.35;4.88;;;24.00;86.10;24.60;100754.00;;;;5008597;28;20646;-59
2023/08/18 09:40:05;;;;;;;5.38;4.90;;;24.00;86.60;24.70;100754.00;;;;5008899;28;20175;-58
2023/08/18 09:42:31;;;;;;;5.40;4.90;;;24.10;86.10;24.70;100758.00;;;;4991707;28;20735;-58
2023/08/18 09:44:57;;;;;;;5.47;4.97;;;24.00;85.30;24.70;100762.00;;;;5007463;28;20183;-58
2023/08/18 09:47:23;;;;;;;5.72;5.22;;;24.10;86.30;24.70;100750.00;;;;5007821;28;20235;-58
2023/08/18 09:49:49;;;;;;;5.85;5.35;;;24.10;86.00;24.80;100753.00;;;;5008119;28;20203;-59
2023/08/18 09:52:14;;;;;;;5.97;5.50;;;24.20;86.40;24.80;100749.00;;;;5008197;28;20296;-59
2023/08/18 09:54:51;;;;;;;5.53;5.07;;;24.20;86.10;24.80;100756.00;;;;4991999;28;20202;-57
2023/08/18 09:57:30;;;;;;;5.75;5.35;;;24.20;87.00;24.80;100758.00;;;;4993569;28;20183;-59
2023/08/18 09:59:56;;;;;;;5.80;5.30;;;24.30;86.30;24.80;100751.00;;;;4993191;28;20262;-59
2023/08/18 10:02:34;;;;;;;6.53;5.63;;;24.20;85.90;24.90;100748.00;;;;5007757;28;20566;-59
2023/08/18 10:05:01;;;;;;;6.32;5.82;;;24.30;86.20;24.90;100748.00;;;;5008354;28;20461;-59
2023/08/18 10:07:27;;;;;;;6.55;6.05;;;24.20;86.00;24.90;100734.00;;;;5008287;28;20222;-58
2023/08/18 10:09:54;;;;;;;6.90;6.20;;;24.30;86.60;24.90;100733.00;;;;5007890;28;20175;-59
2023/08/18 10:12:20;;;;;;;6.18;5.78;;;24.30;86.30;25.00;100737.00;;;;5009298;28;20231;-57
2023/08/18 10:14:46;;;;;;;6.50;6.00;;;24.30;86.60;24.90;100739.00;;;;5009060;28;20180;-57
2023/08/18 10:17:11;;;;;;;6.60;6.03;;;24.40;86.40;25.00;100734.00;;;;5008223;28;20195;-59
2023/08/18 10:19:47;;;;;;;6.35;5.85;;;24.40;86.60;25.00;100739.00;;;;4991558;28;20203;-58
2023/08/18 10:22:17;;;;;;;6.78;6.10;;;24.40;86.70;25.00;100725.00;;;;5008905;28;20555;-59
2023/08/18 10:24:50;;;;;;;5.95;5.55;;;24.40;86.80;25.10;100733.00;;;;4991487;28;20532;-59
2023/08/18 10:27:29;;;;;;;6.50;6.00;;;24.50;87.00;25.10;100745.00;;;;4991888;28;20203;-58
2023/08/18 10:30:28;;;;;;;6.43;5.93;;;24.50;86.80;25.10;100745.00;;;;5009195;28;20191;-58
2023/08/18 10:33:03;;;;;;;6.72;6.07;;;24.50;87.00;25.10;100744.00;;;;5006351;28;20214;-59
2023/08/18 10:35:29;;;;;;;6.70;6.00;;;24.60;86.80;25.10;100750.00;;;;5007791;28;20176;-58
2023/08/18 10:38:05;;;;;;;6.72;6.22;;;24.60;86.70;25.20;100751.00;;;;5007745;28;20186;-58
2023/08/18 10:40:36;;;;;;;6.68;6.18;;;24.60;87.00;25.20;100752.00;;;;5008783;28;20553;-59
2023/08/18 10:43:08;;;;;;;6.85;6.32;;;24.70;86.70;25.20;100741.00;;;;5009143;28;20204;-59
2023/08/18 10:45:34;;;;;;;6.18;5.78;;;24.60;86.80;25.30;100740.00;;;;5010421;28;20626;-59
2023/08/18 10:48:03;;;;;;;7.45;6.82;;;24.60;87.10;25.30;100732.00;;;;5012634;28;20176;-58